This is the latest recevied weather packets stored in our database for station/object ON5MM-5. If no packets are shown the sender has not sent any weather packets the latest 10 day(s).
| Time | Temp. | Humidity | Pressure | Rain* | Wind** | Luminosity | Snow |
|---|---|---|---|---|---|---|---|
| 1777549802 | 17.22° C | 25% | 1026.7 hPa | 0 mm | 2.68 m/s, ° | - | - |
| 1777548902 | 17.22° C | 26% | 1026.9 hPa | 0 mm | 2.68 m/s, ° | - | - |
| 1777548002 | 16.67° C | 26% | 1026.9 hPa | 0 mm | 3.13 m/s, ° | - | - |
| 1777545302 | 15.56° C | 26% | 1027.1 hPa | 0 mm | 3.13 m/s, ° | - | - |
| 1777545003 | 15° C | 26% | 1027 hPa | 0 mm | 4.47 m/s, ° | - | - |
| 1777544702 | 15° C | 25% | 1027.1 hPa | 0 mm | 4.47 m/s, ° | - | - |
| 1777544402 | 15° C | 27% | 1027 hPa | 0 mm | 3.58 m/s, ° | - | - |
| 1777544103 | 15° C | 28% | 1027.1 hPa | 0 mm | 2.68 m/s, ° | - | - |
| 1777543803 | 15° C | 28% | 1027.2 hPa | 0 mm | 3.58 m/s, ° | - | - |
| 1777542603 | 15° C | 28% | 1027.4 hPa | 0 mm | 3.58 m/s, ° | - | - |
| 1777542302 | 15° C | 29% | 1027.4 hPa | 0 mm | 2.68 m/s, ° | - | - |
| 1777542002 | 15° C | 29% | 1027.4 hPa | 0 mm | 3.13 m/s, ° | - | - |
| 1777541702 | 14.44° C | 28% | 1027.4 hPa | 0 mm | 3.58 m/s, ° | - | - |
| 1777541402 | 15° C | 30% | 1027.3 hPa | 0 mm | 2.68 m/s, ° | - | - |
| 1777541102 | 14.44° C | 30% | 1027.5 hPa | 0 mm | 3.13 m/s, ° | - | - |
| 1777540802 | 14.44° C | 30% | 1027.5 hPa | 0 mm | 2.68 m/s, ° | - | - |
| 1777540502 | 14.44° C | 29% | 1027.5 hPa | 0 mm | 3.13 m/s, ° | - | - |
| 1777539902 | 14.44° C | 31% | 1027.5 hPa | 0 mm | 2.24 m/s, ° | - | - |
| 1777539302 | 13.89° C | 31% | 1027.5 hPa | 0 mm | 3.13 m/s, ° | - | - |
| 1777538103 | 13.89° C | 33% | 1027.5 hPa | 0 mm | 2.24 m/s, ° | - | - |
| 1777537502 | 13.33° C | 34% | 1027.4 hPa | 0 mm | 2.24 m/s, ° | - | - |
| 1777537202 | 12.78° C | 32% | 1027.4 hPa | 0 mm | 2.68 m/s, ° | - | - |
| 1777536901 | 13.33° C | 33% | 1027.4 hPa | 0 mm | 2.24 m/s, ° | - | - |
| 1777536603 | 12.78° C | 33% | 1027.5 hPa | 0 mm | 2.24 m/s, ° | - | - |
| 1777534802 | 12.22° C | 34% | 1027.6 hPa | 0 mm | 2.24 m/s, ° | - | - |
* Rain latest hour (hover to see other rain measurements)
** Current wind speed in m/s (hover to see current wind gust speed)